createdAt,value
2019-04-03T00:02:46.112Z,77.67
2019-04-03T00:07:40.039Z,78.24
2019-04-03T00:12:35.008Z,78.30
2019-04-03T00:17:28.994Z,78.45
2019-04-03T00:22:23.057Z,79.37
2019-04-03T00:27:17.161Z,78.49
2019-04-03T00:32:11.125Z,79.46
2019-04-03T00:37:05.110Z,79.82
2019-04-03T00:41:59.064Z,80.04
2019-04-03T00:46:53.818Z,79.91
2019-04-03T00:51:49.091Z,80.62
2019-04-03T00:56:43.057Z,80.67
2019-04-03T01:01:37.120Z,81.02
2019-04-03T01:06:31.144Z,79.62
2019-04-03T01:11:25.118Z,79.29
2019-04-03T01:16:19.209Z,77.98
2019-04-03T01:21:13.193Z,76.03
2019-04-03T01:26:09.334Z,75.13
2019-04-03T01:31:03.301Z,75.44
2019-04-03T01:35:57.293Z,74.91
2019-04-03T01:40:51.345Z,75.50
2019-04-03T01:45:45.308Z,75.71
2019-04-03T01:50:39.494Z,76.56
2019-04-03T01:55:34.498Z,77.42
2019-04-03T02:00:29.281Z,77.35
2019-04-03T02:05:23.227Z,77.70
2019-04-03T02:10:19.190Z,78.12
2019-04-03T02:15:13.315Z,78.52
2019-04-03T02:20:07.414Z,78.08
2019-04-03T02:25:02.181Z,77.54
2019-04-03T02:29:56.294Z,76.68
2019-04-03T02:34:50.272Z,75.80
2019-04-03T02:39:44.522Z,76.00
2019-04-03T02:44:38.631Z,75.53
2019-04-03T02:49:32.590Z,76.18
2019-04-03T02:54:28.663Z,75.70
2019-04-03T02:59:25.118Z,77.17
2019-04-03T03:04:21.456Z,76.88
2019-04-03T03:09:15.180Z,76.73
2019-04-03T03:14:10.199Z,75.59
2019-04-03T03:19:04.315Z,74.29
2019-04-03T03:23:59.374Z,74.15
2019-04-03T03:28:53.541Z,73.92
2019-04-03T03:33:47.613Z,72.75
2019-04-03T03:38:42.402Z,73.40
2019-04-03T03:43:38.289Z,72.49
2019-04-03T03:48:32.882Z,73.43
2019-04-03T03:53:26.940Z,73.65
2019-04-03T03:58:21.388Z,73.66
2019-04-03T04:03:15.470Z,73.19
2019-04-03T04:08:10.784Z,72.15
2019-04-03T04:13:05.812Z,73.70
2019-04-03T04:18:00.513Z,73.98
2019-04-03T04:22:55.121Z,73.76
2019-04-03T04:27:49.583Z,73.43
2019-04-03T04:32:45.591Z,74.56
2019-04-03T04:37:40.568Z,75.93
2019-04-03T04:42:35.358Z,76.65
2019-04-03T04:47:29.497Z,75.89
2019-04-03T04:52:23.467Z,77.02
2019-04-03T04:57:17.437Z,76.81
2019-04-03T05:02:11.559Z,78.84
2019-04-03T05:07:05.549Z,79.60
2019-04-03T05:11:59.891Z,79.83
2019-04-03T05:16:55.882Z,80.06
2019-04-03T05:21:50.804Z,81.11
2019-04-03T05:26:46.777Z,81.68
2019-04-03T05:31:40.884Z,81.79
2019-04-03T05:36:34.834Z,81.87
2019-04-03T05:41:28.793Z,82.05
2019-04-03T05:46:22.760Z,81.67
2019-04-03T05:51:16.929Z,81.84
2019-04-03T05:56:12.358Z,82.67
2019-04-03T06:01:07.358Z,82.77
2019-04-03T06:06:02.994Z,83.35
2019-04-03T06:10:57.270Z,83.10
2019-04-03T06:15:52.967Z,83.46
2019-04-03T06:20:47.337Z,82.17
2019-04-03T06:25:41.536Z,82.55
2019-04-03T06:30:35.537Z,82.62
2019-04-03T06:35:29.604Z,82.09
2019-04-03T06:40:23.595Z,82.82
2019-04-03T06:45:18.030Z,83.29
2019-04-03T06:50:13.306Z,81.82
2019-04-03T06:55:07.496Z,79.63
2019-04-03T07:00:01.904Z,80.26
2019-04-03T07:04:55.886Z,82.31
2019-04-03T07:09:50.831Z,82.32
2019-04-03T07:14:45.534Z,81.88
2019-04-03T07:19:40.216Z,81.15
2019-04-03T07:24:34.360Z,81.94
2019-04-03T07:29:28.488Z,80.79
2019-04-03T07:34:24.920Z,80.08
2019-04-03T07:39:19.860Z,80.05
2019-04-03T07:44:14.280Z,80.03
2019-04-03T07:49:09.048Z,77.20
2019-04-03T07:54:04.825Z,75.08
2019-04-03T07:58:59.020Z,75.73
2019-04-03T08:03:53.421Z,77.93
2019-04-03T08:08:50.415Z,78.58
2019-04-03T08:13:43.620Z,77.94
2019-04-03T08:18:37.668Z,76.56
2019-04-03T08:23:31.667Z,76.74
2019-04-03T08:28:28.046Z,75.85
2019-04-03T08:33:26.067Z,76.51
2019-04-03T08:38:17.374Z,75.33
2019-04-03T08:43:11.371Z,74.41
2019-04-03T08:48:06.366Z,70.35
2019-04-03T08:53:01.407Z,70.84
2019-04-03T08:57:55.965Z,73.34
2019-04-03T09:02:50.230Z,71.79
2019-04-03T09:07:44.307Z,71.87
2019-04-03T09:12:38.931Z,72.10
2019-04-03T09:17:34.047Z,70.95
2019-04-03T09:22:28.843Z,72.33
2019-04-03T09:27:23.048Z,73.40
2019-04-03T09:32:17.234Z,72.95
2019-04-03T09:37:11.509Z,70.94
2019-04-03T09:42:05.518Z,69.23
2019-04-03T09:47:01.148Z,69.74
2019-04-03T09:51:55.617Z,70.38
2019-04-03T09:56:57.841Z,71.28
2019-04-03T10:01:47.877Z,72.36
2019-04-03T10:06:41.676Z,70.28
2019-04-03T10:11:38.270Z,65.55
2019-04-03T10:16:34.922Z,62.04
2019-04-03T10:21:27.938Z,61.25
2019-04-03T10:26:22.072Z,61.56
2019-04-03T10:31:16.174Z,61.65
2019-04-03T10:36:11.801Z,61.14
2019-04-03T10:41:06.253Z,63.06
2019-04-03T10:46:00.638Z,63.90
2019-04-03T10:50:54.604Z,66.46
2019-04-03T10:55:48.694Z,65.43
2019-04-03T11:00:42.650Z,61.82
2019-04-03T11:05:36.734Z,61.07
2019-04-03T11:10:31.030Z,59.68
2019-04-03T11:15:25.119Z,57.23
2019-04-03T11:20:19.518Z,58.21
2019-04-03T11:25:15.244Z,58.73
2019-04-03T11:30:12.408Z,58.40
2019-04-03T11:35:07.673Z,59.83
2019-04-03T11:40:05.696Z,59.42
2019-04-03T11:44:59.831Z,56.07
2019-04-03T11:49:53.952Z,55.75
2019-04-03T11:54:48.214Z,54.80
2019-04-03T11:59:42.276Z,55.64
2019-04-03T12:04:36.413Z,56.04
2019-04-03T12:09:31.690Z,53.65
2019-04-03T12:14:26.349Z,51.52
2019-04-03T12:19:20.513Z,51.35
2019-04-03T12:24:14.959Z,53.17
2019-04-03T12:29:09.184Z,53.64
2019-04-03T12:34:05.174Z,54.92
2019-04-03T12:38:59.313Z,56.33
2019-04-03T12:43:53.306Z,55.52
2019-04-03T12:48:48.706Z,55.32
2019-04-03T12:53:43.539Z,56.16
2019-04-03T12:58:38.524Z,54.99
2019-04-03T13:03:35.694Z,54.51
2019-04-03T13:08:28.674Z,53.58
2019-04-03T13:13:22.663Z,51.20
2019-04-03T13:18:16.742Z,50.19
2019-04-03T13:23:12.476Z,52.32
2019-04-03T13:28:07.135Z,52.64
2019-04-03T13:33:06.080Z,54.27
2019-04-03T13:37:57.237Z,56.13
2019-04-03T13:42:51.698Z,57.08
2019-04-03T13:47:47.054Z,56.04
2019-04-03T13:52:45.833Z,55.82
2019-04-03T13:57:37.310Z,55.94
2019-04-03T14:02:31.924Z,56.06
2019-04-03T14:07:26.057Z,56.87
2019-04-03T14:12:20.214Z,57.25
2019-04-03T14:17:14.910Z,55.53
2019-04-03T14:22:09.204Z,55.21
2019-04-03T14:27:03.408Z,54.24
2019-04-03T14:31:57.645Z,54.42
2019-04-03T14:36:51.691Z,53.04
2019-04-03T14:41:45.682Z,54.52
2019-04-03T14:46:40.261Z,54.86
2019-04-03T14:51:34.371Z,54.89
2019-04-03T14:56:30.413Z,56.01
2019-04-03T15:01:24.457Z,54.93
2019-04-03T15:06:18.846Z,53.50
2019-04-03T15:11:13.145Z,54.30
2019-04-03T15:16:07.677Z,53.81
2019-04-03T15:21:02.006Z,54.67
2019-04-03T15:25:56.198Z,55.66
2019-04-03T15:30:50.642Z,56.41
2019-04-03T15:35:44.691Z,57.19
2019-04-03T15:40:38.850Z,58.58
2019-04-03T15:45:33.169Z,59.56
2019-04-03T15:50:28.559Z,60.60
2019-04-03T15:55:25.225Z,60.26
2019-04-03T16:00:22.844Z,60.63
2019-04-03T16:05:16.954Z,59.41
2019-04-03T16:10:11.231Z,59.80
2019-04-03T16:15:08.612Z,61.31
2019-04-03T16:20:03.985Z,60.80
2019-04-03T16:24:58.874Z,61.66
2019-04-03T16:29:52.926Z,62.52
2019-04-03T16:34:47.454Z,63.67
2019-04-03T16:39:41.513Z,65.46
2019-04-03T16:44:35.714Z,66.52
2019-04-03T16:49:29.684Z,67.41
2019-04-03T16:54:23.740Z,67.70
2019-04-03T16:59:17.982Z,67.88
2019-04-03T17:04:23.805Z,68.37
2019-04-03T17:09:07.960Z,68.62
2019-04-03T17:14:04.040Z,68.68
2019-04-03T17:18:58.317Z,68.63
2019-04-03T17:23:52.432Z,68.23
2019-04-03T17:28:46.629Z,68.01
2019-04-03T17:33:40.640Z,68.54
2019-04-03T17:38:34.746Z,68.68
2019-04-03T17:43:28.751Z,69.55
2019-04-03T17:48:24.881Z,69.82
2019-04-03T17:53:18.972Z,70.27
2019-04-03T17:58:13.090Z,70.72
2019-04-03T18:03:07.517Z,71.12
2019-04-03T18:08:01.515Z,71.21
2019-04-03T18:12:55.864Z,70.77
2019-04-03T18:17:50.001Z,70.41
2019-04-03T18:22:44.023Z,70.63
2019-04-03T18:27:38.274Z,70.65
2019-04-03T18:32:32.547Z,70.91
2019-04-03T18:37:26.947Z,70.76
2019-04-03T18:42:21.097Z,70.94
2019-04-03T18:47:15.279Z,71.54
2019-04-03T18:52:09.680Z,71.86
2019-04-03T18:57:03.799Z,72.24
2019-04-03T19:01:58.001Z,72.60
2019-04-03T19:06:52.129Z,73.27
2019-04-03T19:11:46.344Z,74.17
2019-04-03T19:16:45.246Z,74.87
2019-04-03T19:21:36.623Z,75.33
2019-04-03T19:26:31.782Z,75.75
2019-04-03T19:31:26.334Z,76.09
2019-04-03T19:36:20.591Z,76.05
2019-04-03T19:41:14.736Z,76.47
2019-04-03T19:46:08.762Z,77.25
2019-04-03T19:51:03.534Z,77.60
2019-04-03T19:55:57.579Z,77.96
2019-04-03T20:00:51.658Z,78.06
2019-04-03T20:05:45.866Z,78.21
2019-04-03T20:10:39.881Z,78.49
2019-04-03T20:15:36.748Z,78.40
2019-04-03T20:20:33.364Z,78.63
2019-04-03T20:25:25.884Z,78.40
2019-04-03T20:30:19.997Z,78.31
2019-04-03T20:35:14.117Z,77.89
2019-04-03T20:40:08.404Z,78.51
2019-04-03T20:45:04.856Z,78.40
2019-04-03T20:49:58.948Z,78.03
2019-04-03T20:54:53.803Z,77.84
2019-04-03T20:59:58.751Z,77.83
2019-04-03T21:04:46.482Z,77.50
2019-04-03T21:09:39.707Z,77.46
2019-04-03T21:14:33.744Z,77.25
2019-04-03T21:19:28.054Z,77.52
2019-04-03T21:24:22.019Z,77.80
2019-04-03T21:29:17.328Z,77.72
2019-04-03T21:34:11.506Z,78.01
2019-04-03T21:39:06.399Z,78.18
2019-04-03T21:44:00.548Z,78.17
2019-04-03T21:48:54.553Z,78.18
2019-04-03T21:53:48.541Z,78.17
2019-04-03T21:58:42.527Z,78.11
2019-04-03T22:03:36.521Z,78.23
2019-04-03T22:08:30.581Z,78.49
2019-04-03T22:13:24.684Z,78.57
2019-04-03T22:18:18.678Z,78.87
2019-04-03T22:23:12.675Z,78.97
2019-04-03T22:28:06.866Z,78.77
2019-04-03T22:33:00.847Z,78.98
2019-04-03T22:37:54.838Z,79.04
2019-04-03T22:42:48.865Z,78.96
2019-04-03T22:47:42.855Z,79.16
2019-04-03T22:52:39.641Z,79.26
2019-04-03T22:57:32.694Z,79.32
2019-04-03T23:02:26.642Z,79.47
2019-04-03T23:07:21.409Z,79.52
2019-04-03T23:12:15.436Z,79.84
2019-04-03T23:17:09.566Z,79.76
2019-04-03T23:22:03.627Z,79.66
2019-04-03T23:26:57.618Z,79.75
2019-04-03T23:31:51.596Z,80.13
2019-04-03T23:36:45.763Z,80.50
2019-04-03T23:41:39.823Z,80.42
2019-04-03T23:46:34.040Z,80.90
2019-04-03T23:51:28.164Z,81.00
2019-04-03T23:56:22.128Z,81.20
